createdAt,value
2019-05-05T00:00:44.706Z,3.60
2019-05-05T00:03:15.054Z,3.35
2019-05-05T00:05:44.415Z,3.85
2019-05-05T00:08:10.353Z,3.40
2019-05-05T00:10:57.035Z,3.13
2019-05-05T00:13:27.054Z,3.30
2019-05-05T00:16:00.249Z,3.55
2019-05-05T00:18:27.882Z,3.62
2019-05-05T00:20:55.218Z,3.47
2019-05-05T00:23:21.139Z,3.83
2019-05-05T00:25:46.932Z,3.73
2019-05-05T00:28:14.319Z,3.60
2019-05-05T00:30:40.341Z,3.40
2019-05-05T00:33:06.259Z,3.73
2019-05-05T00:35:32.177Z,3.90
2019-05-05T00:37:58.372Z,4.05
2019-05-05T00:40:24.837Z,4.00
2019-05-05T00:42:50.788Z,3.85
2019-05-05T00:45:16.675Z,3.90
2019-05-05T00:47:47.221Z,3.70
2019-05-05T00:50:15.573Z,3.50
2019-05-05T00:52:41.361Z,4.03
2019-05-05T00:55:07.545Z,4.00
2019-05-05T00:57:34.781Z,3.75
2019-05-05T01:00:00.683Z,4.00
2019-05-05T01:02:28.396Z,4.13
2019-05-05T01:04:56.207Z,3.75
2019-05-05T01:07:21.982Z,4.17
2019-05-05T01:09:47.934Z,3.70
2019-05-05T01:12:15.219Z,4.63
2019-05-05T01:14:41.024Z,4.08
2019-05-05T01:17:06.802Z,4.17
2019-05-05T01:19:34.849Z,3.80
2019-05-05T01:22:00.342Z,4.00
2019-05-05T01:24:26.125Z,4.13
2019-05-05T01:26:51.900Z,3.80
2019-05-05T01:29:17.692Z,4.60
2019-05-05T01:31:45.218Z,4.40
2019-05-05T01:34:14.963Z,3.92
2019-05-05T01:36:40.670Z,4.12
2019-05-05T01:39:14.716Z,4.13
2019-05-05T01:41:42.560Z,3.87
2019-05-05T01:44:08.367Z,4.33
2019-05-05T01:46:35.304Z,4.27
2019-05-05T01:49:01.261Z,4.45
2019-05-05T01:51:27.242Z,4.67
2019-05-05T01:53:54.567Z,4.70
2019-05-05T01:56:20.706Z,4.60
2019-05-05T01:58:47.079Z,4.20
2019-05-05T02:01:12.891Z,4.55
2019-05-05T02:03:38.667Z,4.50
2019-05-05T02:06:05.263Z,4.50
2019-05-05T02:08:31.140Z,4.40
2019-05-05T02:10:56.923Z,4.80
2019-05-05T02:13:22.699Z,5.40
2019-05-05T02:15:48.531Z,4.77
2019-05-05T02:18:14.897Z,4.80
2019-05-05T02:20:50.274Z,5.25
2019-05-05T02:23:18.289Z,4.60
2019-05-05T02:25:44.741Z,4.83
2019-05-05T02:28:10.912Z,5.28
2019-05-05T02:30:47.725Z,4.92
2019-05-05T02:33:15.747Z,5.15
2019-05-05T02:35:41.814Z,5.10
2019-05-05T02:38:08.012Z,4.60
2019-05-05T02:40:35.083Z,4.67
2019-05-05T02:43:01.077Z,5.20
2019-05-05T02:45:35.289Z,5.07
2019-05-05T02:48:05.902Z,5.30
2019-05-05T02:50:50.830Z,5.08
2019-05-05T02:53:04.041Z,5.00
2019-05-05T02:55:32.811Z,5.10
2019-05-05T02:58:01.059Z,5.30
2019-05-05T03:00:29.149Z,5.20
2019-05-05T03:02:57.347Z,5.10
2019-05-05T03:05:23.627Z,4.90
2019-05-05T03:07:49.423Z,5.12
2019-05-05T03:10:15.301Z,4.87
2019-05-05T03:12:41.095Z,4.73
2019-05-05T03:15:07.066Z,4.73
2019-05-05T03:17:34.061Z,5.10
2019-05-05T03:20:00.646Z,4.83
2019-05-05T03:22:26.537Z,5.15
2019-05-05T03:24:54.128Z,4.30
2019-05-05T03:27:20.015Z,5.92
2019-05-05T03:29:45.886Z,5.00
2019-05-05T03:32:12.033Z,5.10
2019-05-05T03:34:38.563Z,5.03
2019-05-05T03:37:04.758Z,4.90
2019-05-05T03:39:33.888Z,5.03
2019-05-05T03:42:03.536Z,4.83
2019-05-05T03:44:34.266Z,4.80
2019-05-05T03:47:00.359Z,4.50
2019-05-05T03:49:26.234Z,5.08
2019-05-05T03:51:54.213Z,5.00
2019-05-05T03:54:20.010Z,5.05
2019-05-05T03:56:45.988Z,5.10
2019-05-05T03:59:14.023Z,5.00
2019-05-05T04:01:57.746Z,5.58
2019-05-05T04:04:24.749Z,4.85
2019-05-05T04:06:55.676Z,4.75
2019-05-05T04:09:21.669Z,4.70
2019-05-05T04:11:47.551Z,4.97
2019-05-05T04:14:14.187Z,4.73
2019-05-05T04:16:47.538Z,4.95
2019-05-05T04:19:24.039Z,5.08
2019-05-05T04:21:49.824Z,4.95
2019-05-05T04:24:15.622Z,4.73
2019-05-05T04:26:41.397Z,4.63
2019-05-05T04:29:07.188Z,4.67
2019-05-05T04:31:34.565Z,4.90
2019-05-05T04:34:00.471Z,4.80
2019-05-05T04:36:26.243Z,4.27
2019-05-05T04:38:54.590Z,4.78
2019-05-05T04:41:20.451Z,4.55
2019-05-05T04:43:46.258Z,4.70
2019-05-05T04:46:14.022Z,4.63
2019-05-05T04:48:43.450Z,4.67
2019-05-05T04:51:11.217Z,4.80
2019-05-05T04:53:41.449Z,4.90
2019-05-05T04:56:07.242Z,4.60
2019-05-05T04:58:33.566Z,4.97
2019-05-05T05:00:59.420Z,4.60
2019-05-05T05:03:45.051Z,4.80
2019-05-05T05:06:15.497Z,5.45
2019-05-05T05:08:41.278Z,4.95
2019-05-05T05:11:07.062Z,4.37
2019-05-05T05:13:34.750Z,11.10
2019-05-05T05:16:00.535Z,7.35
2019-05-05T05:18:26.310Z,5.10
2019-05-05T05:20:52.112Z,6.93
2019-05-05T05:23:17.894Z,6.10
2019-05-05T05:25:43.951Z,5.00
2019-05-05T05:28:09.774Z,4.80
2019-05-05T05:30:35.561Z,4.80
2019-05-05T05:33:01.337Z,4.67
2019-05-05T05:35:27.139Z,4.03
2019-05-05T05:37:53.988Z,3.80
2019-05-05T05:40:23.611Z,3.77
2019-05-05T05:42:49.499Z,3.83
2019-05-05T05:45:34.387Z,4.03
2019-05-05T05:48:04.586Z,3.30
2019-05-05T05:50:35.051Z,3.23
2019-05-05T05:53:00.832Z,3.50
2019-05-05T05:55:26.626Z,3.87
2019-05-05T05:57:54.177Z,3.40
2019-05-05T06:00:20.189Z,3.33
2019-05-05T06:02:45.964Z,2.80
2019-05-05T06:05:11.786Z,2.90
2019-05-05T06:07:37.561Z,2.80
2019-05-05T06:10:03.889Z,2.80
2019-05-05T06:12:29.652Z,2.40
2019-05-05T06:14:55.432Z,2.27
2019-05-05T06:17:21.233Z,2.20
2019-05-05T06:19:47.009Z,2.50
2019-05-05T06:22:15.171Z,2.60
2019-05-05T06:24:40.490Z,2.40
2019-05-05T06:27:06.284Z,2.43
2019-05-05T06:29:34.345Z,2.80
2019-05-05T06:31:59.751Z,2.40
2019-05-05T06:34:25.540Z,2.80
2019-05-05T06:36:51.343Z,2.63
2019-05-05T06:39:17.121Z,2.47
2019-05-05T06:41:50.607Z,2.70
2019-05-05T06:44:26.860Z,2.70
2019-05-05T06:47:13.541Z,2.83
2019-05-05T06:49:39.415Z,2.43
2019-05-05T06:52:05.203Z,2.20
2019-05-05T06:54:30.994Z,2.33
2019-05-05T06:56:56.800Z,2.17
2019-05-05T06:59:24.334Z,2.13
2019-05-05T07:01:50.279Z,1.90
2019-05-05T07:04:16.057Z,2.20
2019-05-05T07:06:53.549Z,2.00
2019-05-05T07:09:09.543Z,1.97
2019-05-05T07:11:35.324Z,1.93
2019-05-05T07:14:03.631Z,2.20
2019-05-05T07:16:29.322Z,2.83
2019-05-05T07:18:55.112Z,2.20
2019-05-05T07:21:23.509Z,2.40
2019-05-05T07:23:48.979Z,2.90
2019-05-05T07:26:14.751Z,2.87
2019-05-05T07:28:40.540Z,2.70
2019-05-05T07:31:06.372Z,3.03
2019-05-05T07:33:34.347Z,3.20
2019-05-05T07:36:18.212Z,3.23
2019-05-05T07:38:45.924Z,3.47
2019-05-05T07:41:11.713Z,3.77
2019-05-05T07:43:37.504Z,3.40
2019-05-05T07:46:04.440Z,3.80
2019-05-05T07:48:30.307Z,3.97
2019-05-05T07:51:02.123Z,4.83
2019-05-05T07:53:24.451Z,5.63
2019-05-05T07:55:50.479Z,5.83
2019-05-05T07:58:16.292Z,5.90
2019-05-05T08:00:43.624Z,5.83
2019-05-05T08:03:09.570Z,5.83
2019-05-05T08:05:35.364Z,5.97
2019-05-05T08:08:01.211Z,5.97
2019-05-05T08:10:27.003Z,5.73
2019-05-05T08:12:54.228Z,6.30
2019-05-05T08:15:23.719Z,7.20
2019-05-05T08:17:56.952Z,5.80
2019-05-05T08:20:30.431Z,6.37
2019-05-05T08:22:56.211Z,5.77
2019-05-05T08:25:36.320Z,5.83
2019-05-05T08:27:53.834Z,5.83
2019-05-05T08:30:33.845Z,6.40
2019-05-05T08:32:59.826Z,6.27
2019-05-05T08:35:25.619Z,5.43
2019-05-05T08:37:51.411Z,5.83
2019-05-05T08:40:17.300Z,5.87
2019-05-05T08:42:44.557Z,5.90
2019-05-05T08:45:10.518Z,6.80
2019-05-05T08:47:36.297Z,7.07
2019-05-05T08:50:04.250Z,6.53
2019-05-05T08:52:29.995Z,5.87
2019-05-05T08:54:55.784Z,6.67
2019-05-05T08:57:23.550Z,5.60
2019-05-05T08:59:49.257Z,4.73
2019-05-05T09:02:15.167Z,5.60
2019-05-05T09:04:40.937Z,5.70
2019-05-05T09:07:06.723Z,5.97
2019-05-05T09:09:33.509Z,6.03
2019-05-05T09:11:59.427Z,5.53
2019-05-05T09:14:25.231Z,5.63
2019-05-05T09:16:51.065Z,6.17
2019-05-05T09:19:18.743Z,5.73
2019-05-05T09:21:44.901Z,5.17
2019-05-05T09:24:15.318Z,5.77
2019-05-05T09:26:48.896Z,5.40
2019-05-05T09:29:25.589Z,5.60
2019-05-05T09:31:51.374Z,5.40
2019-05-05T09:34:17.189Z,5.67
2019-05-05T09:36:43.958Z,5.80
2019-05-05T09:39:09.900Z,6.10
2019-05-05T09:41:35.695Z,5.40
2019-05-05T09:44:01.473Z,5.37
2019-05-05T09:46:27.360Z,6.37
2019-05-05T09:48:54.178Z,5.40
2019-05-05T09:51:20.075Z,6.47
2019-05-05T09:53:45.954Z,5.70
2019-05-05T09:56:11.764Z,4.90
2019-05-05T09:58:37.543Z,5.47
2019-05-05T10:01:04.253Z,5.03
2019-05-05T10:03:30.044Z,5.10
2019-05-05T10:05:55.820Z,3.33
2019-05-05T10:08:23.528Z,3.93
2019-05-05T10:10:49.377Z,4.43
2019-05-05T10:13:15.246Z,4.80
2019-05-05T10:15:41.037Z,4.07
2019-05-05T10:18:06.820Z,4.03
2019-05-05T10:20:34.373Z,4.30
2019-05-05T10:23:00.240Z,3.87
2019-05-05T10:25:44.650Z,4.00
2019-05-05T10:28:10.616Z,3.83
2019-05-05T10:30:36.398Z,4.77
2019-05-05T10:33:03.742Z,4.30
2019-05-05T10:35:29.692Z,3.70
2019-05-05T10:37:55.480Z,4.60
2019-05-05T10:40:25.701Z,5.10
2019-05-05T10:42:54.187Z,4.43
2019-05-05T10:45:21.376Z,4.43
2019-05-05T10:47:47.568Z,4.83
2019-05-05T10:50:13.942Z,4.77
2019-05-05T10:52:39.831Z,4.27
2019-05-05T10:55:06.167Z,4.53
2019-05-05T10:57:34.027Z,4.67
2019-05-05T11:00:10.094Z,4.10
2019-05-05T11:02:27.475Z,4.30
2019-05-05T11:04:54.626Z,4.33
2019-05-05T11:07:20.479Z,4.27
2019-05-05T11:09:46.262Z,4.80
2019-05-05T11:12:13.708Z,4.53
2019-05-05T11:14:39.735Z,4.83
2019-05-05T11:17:05.533Z,5.00
2019-05-05T11:19:33.466Z,5.10
2019-05-05T11:21:59.962Z,4.67
2019-05-05T11:24:25.755Z,15.33
2019-05-05T11:26:53.817Z,5.33
2019-05-05T11:29:20.461Z,4.63
2019-05-05T11:31:46.185Z,4.90
2019-05-05T11:34:14.167Z,4.93
2019-05-05T11:36:43.790Z,4.30
2019-05-05T11:39:09.659Z,4.30
2019-05-05T11:41:35.439Z,4.00
2019-05-05T11:44:01.317Z,4.50
2019-05-05T11:46:27.144Z,4.60
2019-05-05T11:48:54.373Z,4.27
2019-05-05T11:51:20.308Z,4.53
2019-05-05T11:53:46.107Z,4.27
2019-05-05T11:56:11.886Z,4.20
2019-05-05T11:58:37.683Z,4.40
2019-05-05T12:01:03.901Z,4.87
2019-05-05T12:03:29.735Z,4.50
2019-05-05T12:05:55.531Z,4.43
2019-05-05T12:08:21.307Z,4.47
2019-05-05T12:10:49.002Z,3.77
2019-05-05T12:13:14.914Z,4.57
2019-05-05T12:15:44.536Z,3.93
2019-05-05T12:18:10.253Z,3.67
2019-05-05T12:20:37.651Z,4.10
2019-05-05T12:23:04.617Z,4.67
2019-05-05T12:25:50.377Z,4.23
2019-05-05T12:28:24.843Z,4.20
2019-05-05T12:30:52.841Z,5.33
2019-05-05T12:33:18.618Z,3.80
2019-05-05T12:35:44.629Z,4.10
2019-05-05T12:38:10.395Z,3.80
2019-05-05T12:40:36.189Z,3.60
2019-05-05T12:43:03.671Z,4.20
2019-05-05T12:45:31.486Z,4.10
2019-05-05T12:47:59.163Z,4.07
2019-05-05T12:50:25.055Z,3.47
2019-05-05T12:52:50.840Z,3.80
2019-05-05T12:55:16.627Z,4.03
2019-05-05T12:57:43.586Z,3.57
2019-05-05T13:00:09.838Z,3.63
2019-05-05T13:02:35.637Z,3.70
2019-05-05T13:05:01.523Z,4.20
2019-05-05T13:07:27.318Z,3.60
2019-05-05T13:09:54.487Z,3.60
2019-05-05T13:12:20.390Z,3.80
2019-05-05T13:14:46.180Z,3.97
2019-05-05T13:17:14.045Z,3.40
2019-05-05T13:19:43.594Z,4.27
2019-05-05T13:22:16.724Z,3.63
2019-05-05T13:24:44.403Z,4.23
2019-05-05T13:27:19.226Z,3.60
2019-05-05T13:29:39.796Z,3.70
2019-05-05T13:32:05.698Z,3.60
2019-05-05T13:34:31.481Z,4.60
2019-05-05T13:36:57.316Z,3.77
2019-05-05T13:39:24.736Z,3.43
2019-05-05T13:41:50.779Z,3.47
2019-05-05T13:44:18.546Z,3.87
2019-05-05T13:46:44.369Z,3.77
2019-05-05T13:49:26.739Z,3.77
2019-05-05T13:51:54.017Z,3.87
2019-05-05T13:54:19.948Z,3.67
2019-05-05T13:56:45.743Z,4.00
2019-05-05T13:59:11.530Z,3.63
2019-05-05T14:01:37.342Z,4.00
2019-05-05T14:04:04.584Z,3.80
2019-05-05T14:06:30.447Z,3.40
2019-05-05T14:08:56.224Z,3.53
2019-05-05T14:11:22.008Z,3.60
2019-05-05T14:13:48.588Z,4.03
2019-05-05T14:16:14.509Z,3.83
2019-05-05T14:18:40.335Z,3.30
2019-05-05T14:21:06.118Z,3.50
2019-05-05T14:23:34.535Z,3.50
2019-05-05T14:26:00.411Z,3.70
2019-05-05T14:28:26.207Z,3.33
2019-05-05T14:30:59.783Z,3.67
2019-05-05T14:33:27.580Z,4.03
2019-05-05T14:36:01.044Z,3.20
2019-05-05T14:38:49.315Z,3.57
2019-05-05T14:41:15.056Z,3.53
2019-05-05T14:43:41.011Z,3.67
2019-05-05T14:46:07.252Z,3.57
2019-05-05T14:48:34.023Z,3.90
2019-05-05T14:51:00.726Z,4.40
2019-05-05T14:53:26.527Z,4.20
2019-05-05T14:55:53.790Z,4.97
2019-05-05T14:58:19.632Z,4.17
2019-05-05T15:00:45.445Z,4.50
2019-05-05T15:03:11.240Z,4.47
2019-05-05T15:05:41.695Z,4.17
2019-05-05T15:08:24.318Z,5.10
2019-05-05T15:10:54.833Z,5.07
2019-05-05T15:13:21.650Z,4.80
2019-05-05T15:15:47.751Z,4.23
2019-05-05T15:18:14.640Z,4.83
2019-05-05T15:20:40.551Z,4.53
2019-05-05T15:23:06.336Z,4.30
2019-05-05T15:25:34.043Z,4.83
2019-05-05T15:27:59.823Z,4.33
2019-05-05T15:30:27.258Z,5.23
2019-05-05T15:32:54.122Z,3.83
2019-05-05T15:35:20.024Z,4.67
2019-05-05T15:37:45.814Z,4.13
2019-05-05T15:40:14.174Z,4.30
2019-05-05T15:42:39.793Z,3.87
2019-05-05T15:45:05.702Z,3.33
2019-05-05T15:47:31.481Z,4.40
2019-05-05T15:49:57.286Z,3.90
2019-05-05T15:52:24.353Z,4.47
2019-05-05T15:54:50.164Z,3.87
2019-05-05T15:57:18.050Z,3.70
2019-05-05T15:59:43.785Z,3.50
2019-05-05T16:02:09.515Z,3.67
2019-05-05T16:04:35.327Z,4.30
2019-05-05T16:07:01.110Z,3.70
2019-05-05T16:09:26.891Z,3.50
2019-05-05T16:11:54.607Z,4.00
2019-05-05T16:14:20.926Z,3.73
2019-05-05T16:16:48.616Z,3.50
2019-05-05T16:19:22.097Z,4.30
2019-05-05T16:21:49.784Z,3.93
2019-05-05T16:24:17.474Z,3.77
2019-05-05T16:26:43.284Z,4.20
2019-05-05T16:29:09.069Z,4.40
2019-05-05T16:31:34.867Z,3.73
2019-05-05T16:34:00.644Z,4.30
2019-05-05T16:36:29.680Z,4.10
2019-05-05T16:38:55.472Z,4.73
2019-05-05T16:41:21.264Z,3.80
2019-05-05T16:43:49.521Z,4.80
2019-05-05T16:46:17.009Z,3.20
2019-05-05T16:48:43.976Z,3.27
2019-05-05T16:51:13.759Z,3.50
2019-05-05T16:53:39.852Z,3.47
2019-05-05T16:56:08.344Z,4.27
2019-05-05T16:58:34.133Z,3.80
2019-05-05T17:00:59.929Z,3.43
2019-05-05T17:03:25.731Z,3.50
2019-05-05T17:05:51.518Z,3.37
2019-05-05T17:08:17.298Z,3.90
2019-05-05T17:10:43.563Z,3.43
2019-05-05T17:13:15.370Z,4.30
2019-05-05T17:15:44.001Z,3.67
2019-05-05T17:18:35.177Z,3.87
2019-05-05T17:20:56.483Z,3.13
2019-05-05T17:23:23.745Z,6.30
2019-05-05T17:25:49.575Z,3.10
2019-05-05T17:28:15.375Z,3.53
2019-05-05T17:30:41.160Z,3.70
2019-05-05T17:33:06.956Z,3.23
2019-05-05T17:35:33.682Z,3.53
2019-05-05T17:38:13.806Z,3.23
2019-05-05T17:40:44.707Z,3.23
2019-05-05T17:43:24.667Z,3.53
2019-05-05T17:45:56.920Z,3.67
2019-05-05T17:48:36.481Z,4.23
2019-05-05T17:51:09.547Z,4.13
2019-05-05T17:53:37.258Z,3.53
2019-05-05T17:56:04.962Z,3.50
2019-05-05T17:58:30.767Z,3.27
2019-05-05T18:00:58.449Z,3.90
2019-05-05T18:03:34.769Z,3.60
2019-05-05T18:06:23.614Z,3.30
2019-05-05T18:08:53.791Z,3.63
2019-05-05T18:11:30.133Z,3.50
2019-05-05T18:14:03.994Z,3.80
2019-05-05T18:16:33.899Z,3.80
2019-05-05T18:19:00.745Z,3.40
2019-05-05T18:21:34.756Z,3.80
2019-05-05T18:24:01.147Z,4.60
2019-05-05T18:26:26.929Z,4.20
2019-05-05T18:28:54.048Z,4.80
2019-05-05T18:31:20.150Z,3.60
2019-05-05T18:33:45.950Z,3.67
2019-05-05T18:36:11.729Z,3.50
2019-05-05T18:38:37.519Z,3.73
2019-05-05T18:41:05.212Z,3.23
2019-05-05T18:43:34.042Z,3.00
2019-05-05T18:46:01.300Z,3.10
2019-05-05T18:48:27.097Z,3.10
2019-05-05T18:50:54.165Z,3.10
2019-05-05T18:53:19.978Z,3.23
2019-05-05T18:55:45.761Z,3.47
2019-05-05T18:58:11.553Z,3.80
2019-05-05T19:00:47.907Z,4.40
2019-05-05T19:03:20.294Z,3.23
2019-05-05T19:05:49.550Z,3.50
2019-05-05T19:08:17.242Z,3.80
2019-05-05T19:10:43.390Z,2.80
2019-05-05T19:13:09.224Z,3.07
2019-05-05T19:15:35.093Z,3.10
2019-05-05T19:18:01.034Z,2.83
2019-05-05T19:20:28.720Z,3.57
2019-05-05T19:23:03.485Z,3.20
2019-05-05T19:25:29.373Z,3.03
2019-05-05T19:27:55.947Z,2.80
2019-05-05T19:30:21.843Z,3.10
2019-05-05T19:32:47.623Z,3.50
2019-05-05T19:35:13.421Z,3.00
2019-05-05T19:37:39.198Z,3.27
2019-05-05T19:40:06.172Z,3.47
2019-05-05T19:42:32.081Z,3.07
2019-05-05T19:44:57.891Z,3.27
2019-05-05T19:47:24.604Z,3.23
2019-05-05T19:50:07.434Z,3.80
2019-05-05T19:52:34.866Z,3.17
2019-05-05T19:55:00.713Z,3.40
2019-05-05T19:57:26.494Z,3.50
2019-05-05T19:59:54.145Z,3.27
2019-05-05T20:02:19.965Z,3.67
2019-05-05T20:04:45.764Z,2.93
2019-05-05T20:07:13.803Z,3.40
2019-05-05T20:09:39.251Z,4.00
2019-05-05T20:12:05.027Z,4.20
2019-05-05T20:14:30.823Z,3.90
2019-05-05T20:17:10.642Z,3.47
2019-05-05T20:19:38.341Z,4.00
2019-05-05T20:22:04.215Z,3.77
2019-05-05T20:24:30.025Z,3.93
2019-05-05T20:26:55.809Z,3.53
2019-05-05T20:29:23.873Z,3.77
2019-05-05T20:31:49.280Z,4.07
2019-05-05T20:34:28.623Z,3.80
2019-05-05T20:37:04.283Z,4.00
2019-05-05T20:39:29.837Z,3.83
2019-05-05T20:41:55.632Z,3.90
2019-05-05T20:44:22.023Z,3.97
2019-05-05T20:46:48.257Z,3.90
2019-05-05T20:49:14.486Z,4.13
2019-05-05T20:51:40.887Z,3.57
2019-05-05T20:54:07.656Z,3.73
2019-05-05T20:56:34.122Z,4.10
2019-05-05T20:58:59.880Z,3.67
2019-05-05T21:01:25.674Z,3.73
2019-05-05T21:03:53.550Z,3.63
2019-05-05T21:06:19.415Z,3.70
2019-05-05T21:08:45.576Z,4.17
2019-05-05T21:11:11.369Z,3.90
2019-05-05T21:13:37.142Z,4.03
2019-05-05T21:16:02.933Z,4.37
2019-05-05T21:18:28.716Z,4.07
2019-05-05T21:20:55.607Z,4.53
2019-05-05T21:23:26.919Z,4.47
2019-05-05T21:26:10.037Z,4.07
2019-05-05T21:28:35.892Z,3.67
2019-05-05T21:31:01.785Z,4.30
2019-05-05T21:33:27.559Z,3.80
2019-05-05T21:35:55.094Z,4.47
2019-05-05T21:38:21.098Z,4.40
2019-05-05T21:40:46.872Z,3.93
2019-05-05T21:43:12.657Z,3.70
2019-05-05T21:45:38.551Z,4.80
2019-05-05T21:48:04.555Z,4.10
2019-05-05T21:50:33.896Z,4.37
2019-05-05T21:53:01.721Z,4.90
2019-05-05T21:55:29.677Z,5.33
2019-05-05T21:57:57.370Z,4.97
2019-05-05T22:00:41.519Z,4.93
2019-05-05T22:03:07.910Z,4.90
2019-05-05T22:05:33.687Z,4.17
2019-05-05T22:07:59.487Z,4.63
2019-05-05T22:10:25.264Z,4.60
2019-05-05T22:12:51.053Z,4.77
2019-05-05T22:15:16.827Z,4.80
2019-05-05T22:17:44.654Z,5.00
2019-05-05T22:20:14.251Z,4.90
2019-05-05T22:22:41.792Z,5.63
2019-05-05T22:25:07.678Z,5.10
2019-05-05T22:27:34.573Z,5.20
2019-05-05T22:30:09.647Z,5.00
2019-05-05T22:32:28.123Z,5.03
2019-05-05T22:34:53.929Z,4.60
2019-05-05T22:37:19.699Z,4.67
2019-05-05T22:39:45.504Z,4.30
2019-05-05T22:42:11.368Z,4.40
2019-05-05T22:44:37.168Z,5.07
2019-05-05T22:47:04.707Z,5.00
2019-05-05T22:49:30.657Z,4.97
2019-05-05T22:51:56.439Z,5.77
2019-05-05T22:54:24.084Z,5.67
2019-05-05T22:56:49.907Z,5.70
2019-05-05T22:59:15.694Z,5.63
2019-05-05T23:01:41.467Z,5.80
2019-05-05T23:04:09.156Z,4.87
2019-05-05T23:06:43.831Z,4.70
2019-05-05T23:09:11.551Z,5.00
2019-05-05T23:11:37.331Z,5.33
2019-05-05T23:14:21.440Z,5.17
2019-05-05T23:16:49.122Z,5.03
2019-05-05T23:19:14.917Z,4.93
2019-05-05T23:21:45.372Z,4.87
2019-05-05T23:24:24.923Z,5.10
2019-05-05T23:26:54.434Z,5.03
2019-05-05T23:29:20.290Z,5.03
2019-05-05T23:31:46.063Z,5.10
2019-05-05T23:34:11.843Z,4.80
2019-05-05T23:36:37.636Z,5.07
2019-05-05T23:39:05.021Z,4.77
2019-05-05T23:41:30.808Z,4.70
2019-05-05T23:43:56.599Z,4.47
2019-05-05T23:46:24.145Z,4.93
2019-05-05T23:48:50.079Z,5.27
2019-05-05T23:51:15.869Z,5.10
2019-05-05T23:53:44.306Z,5.03
2019-05-05T23:56:09.951Z,4.43
2019-05-05T23:58:35.718Z,5.20
